Terminal Aerodrome Forecast
Issued by NWS

Home | Current Version | Previous Version | Graphics & Text | Print | Product List | Glossary On
Versions: 1 2 3 4 5 6 7 8 9 10 11 12 13 14 15 16 17 18 19 20 21 22 23 24 25 26
000
FTUS43 KLOT 140524
TAFGYY
TAF
KGYY 140524Z 1406/1506 27005KT P6SM FEW250
     FM141600 20008KT P6SM BKN200
     FM142000 17010KT P6SM BKN050 BKN150
     FM150000 17011KT 5SM -SN SCT030 OVC050
     FM150130 16012KT 1 1/2SM -SN BKN015 OVC025=

USA.gov is the U.S. government's official web portal to all federal, state and local government web resources and services.